createdAt,value
2018-06-04T00:00:31.096Z,100923.34
2018-06-04T00:03:07.092Z,100923.97
2018-06-04T00:05:42.795Z,100925.53
2018-06-04T00:08:18.475Z,100927.90
2018-06-04T00:10:54.324Z,100928.84
2018-06-04T00:13:30.071Z,100935.59
2018-06-04T00:16:06.079Z,100933.29
2018-06-04T00:18:42.563Z,100934.45
2018-06-04T00:21:18.085Z,100932.27
2018-06-04T00:23:54.078Z,100935.69
2018-06-04T00:26:29.759Z,100935.47
2018-06-04T00:29:05.558Z,100940.56
2018-06-04T00:31:41.085Z,100934.19
2018-06-04T00:34:17.096Z,100942.67
2018-06-04T00:36:53.093Z,100934.69
2018-06-04T00:39:29.990Z,100936.98
2018-06-04T00:44:37.502Z,100935.13
2018-06-04T00:47:13.305Z,100933.86
2018-06-04T00:49:49.299Z,100942.05
2018-06-04T00:52:25.700Z,100937.27
2018-06-04T00:55:01.778Z,100937.48
2018-06-04T00:57:37.984Z,100936.02
2018-06-04T01:00:15.038Z,100934.98
2018-06-04T01:02:52.104Z,100936.62
2018-06-04T01:05:29.119Z,100941.72
2018-06-04T01:08:05.090Z,100938.07
2018-06-04T01:11:34.002Z,100941.16
2018-06-04T01:14:10.062Z,100941.13
2018-06-04T01:16:45.878Z,100939.70
2018-06-04T01:19:21.507Z,100939.70
2018-06-04T01:21:58.361Z,100941.44
2018-06-04T01:24:34.091Z,100943.39
2018-06-04T01:27:09.993Z,100944.38
2018-06-04T01:29:46.663Z,100945.78
2018-06-04T01:32:22.988Z,100951.67
2018-06-04T01:34:59.084Z,100956.25
2018-06-04T01:37:34.970Z,100960.77
2018-06-04T01:40:11.094Z,100961.27
2018-06-04T01:42:46.962Z,100964.47
2018-06-04T01:45:22.822Z,100966.41
2018-06-04T01:47:58.397Z,100968.09
2018-06-04T01:50:34.110Z,100973.86
2018-06-04T01:53:10.101Z,100968.86
2018-06-04T01:55:46.059Z,100968.10
2018-06-04T01:58:22.983Z,100969.63
2018-06-04T02:00:58.936Z,100967.98
2018-06-04T02:03:35.103Z,100966.51
2018-06-04T02:06:11.084Z,100966.26
2018-06-04T02:08:46.780Z,100973.48
2018-06-04T02:11:23.305Z,100973.66
2018-06-04T02:13:59.432Z,100983.78
2018-06-04T02:16:35.010Z,100986.19
2018-06-04T02:19:11.066Z,100983.20
2018-06-04T02:21:47.061Z,100983.58
2018-06-04T02:24:23.052Z,100982.05
2018-06-04T02:26:59.095Z,100984.31
2018-06-04T02:29:34.982Z,100982.84
2018-06-04T02:32:11.094Z,100987.66
2018-06-04T02:34:47.080Z,100990.84
2018-06-04T02:37:23.091Z,100987.19
2018-06-04T02:40:00.347Z,100990.79
2018-06-04T02:42:36.241Z,100990.40
2018-06-04T02:45:12.133Z,100989.20
2018-06-04T02:47:47.540Z,100989.67
2018-06-04T02:50:23.344Z,100990.31
2018-06-04T02:52:59.239Z,100988.12
2018-06-04T02:55:35.334Z,100994.63
2018-06-04T02:58:12.274Z,100995.12
2018-06-04T03:00:48.238Z,100994.55
2018-06-04T03:03:24.263Z,100997.11
2018-06-04T03:05:59.983Z,100994.66
2018-06-04T03:08:38.505Z,100996.56
2018-06-04T03:11:14.089Z,100998.16
2018-06-04T03:13:49.644Z,101003.23
2018-06-04T03:16:25.423Z,101001.65
2018-06-04T03:19:01.061Z,101010.20
2018-06-04T03:21:36.528Z,101003.90
2018-06-04T03:24:12.115Z,101006.08
2018-06-04T03:26:48.089Z,101011.02
2018-06-04T03:29:23.750Z,101018.13
2018-06-04T03:31:59.215Z,101018.20
2018-06-04T03:34:34.793Z,101026.64
2018-06-04T03:37:10.311Z,101028.53
2018-06-04T03:39:45.998Z,101035.48
2018-06-04T03:42:21.496Z,101036.52
2018-06-04T03:44:58.098Z,101040.08
2018-06-04T03:47:33.734Z,101039.09
2018-06-04T03:50:09.287Z,101039.97
2018-06-04T03:52:45.094Z,101044.34
2018-06-04T03:55:20.542Z,101048.72
2018-06-04T03:57:56.085Z,101055.95
2018-06-04T04:00:31.560Z,101056.80
2018-06-04T04:03:05.219Z,101061.70
2018-06-04T04:05:40.781Z,101065.06
2018-06-04T04:08:16.356Z,101069.77
2018-06-04T04:10:52.101Z,101066.09
2018-06-04T04:13:27.847Z,101076.48
2018-06-04T04:16:03.402Z,101070.81
2018-06-04T04:18:39.216Z,101080.87
2018-06-04T04:21:14.922Z,101070.84
2018-06-04T04:23:50.313Z,101081.63
2018-06-04T04:26:26.799Z,101079.62
2018-06-04T04:29:02.336Z,101081.00
2018-06-04T04:31:38.030Z,101083.70
2018-06-04T04:34:13.564Z,101088.56
2018-06-04T04:36:49.099Z,101092.80
2018-06-04T04:39:24.426Z,101087.59
2018-06-04T04:42:00.090Z,101099.17
2018-06-04T04:44:35.765Z,101102.70
2018-06-04T04:47:11.322Z,101108.93
2018-06-04T04:49:45.015Z,101121.33
2018-06-04T04:52:20.526Z,101122.95
2018-06-04T04:54:56.095Z,101123.80
2018-06-04T04:57:31.507Z,101123.99
2018-06-04T05:00:07.075Z,101122.83
2018-06-04T05:02:42.753Z,101123.84
2018-06-04T05:05:19.023Z,101126.72
2018-06-04T05:07:54.659Z,101121.51
2018-06-04T05:10:30.095Z,101122.34
2018-06-04T05:13:05.745Z,101122.05
2018-06-04T05:15:41.292Z,101121.37
2018-06-04T05:18:17.076Z,101116.71
2018-06-04T05:20:52.529Z,101120.92
2018-06-04T05:23:29.123Z,101120.42
2018-06-04T05:26:04.658Z,101119.09
2018-06-04T05:31:39.274Z,101124.63
2018-06-04T05:34:15.006Z,101126.62
2018-06-04T05:36:51.098Z,101124.98
2018-06-04T05:39:27.092Z,101117.75
2018-06-04T05:42:03.103Z,101120.78
2018-06-04T05:44:39.933Z,101124.45
2018-06-04T05:47:17.090Z,101125.28
2018-06-04T05:49:52.866Z,101128.63
2018-06-04T05:52:29.810Z,101129.82
2018-06-04T05:55:06.772Z,101130.81
2018-06-04T05:57:42.295Z,101125.30
2018-06-04T06:00:17.816Z,101117.95
2018-06-04T06:02:53.405Z,101124.47
2018-06-04T06:05:29.108Z,101121.13
2018-06-04T06:08:05.070Z,101117.45
2018-06-04T06:10:41.770Z,101119.45
2018-06-04T06:13:17.444Z,101118.60
2018-06-04T06:15:53.105Z,101117.27
2018-06-04T06:18:28.931Z,101118.96
2018-06-04T06:21:05.989Z,101118.61
2018-06-04T06:23:41.841Z,101125.62
2018-06-04T06:26:17.513Z,101119.78
2018-06-04T06:28:53.118Z,101125.13
2018-06-04T06:31:28.849Z,101115.95
2018-06-04T06:34:05.091Z,101116.44
2018-06-04T06:36:42.091Z,101112.72
2018-06-04T06:39:18.098Z,101114.06
2018-06-04T06:41:53.862Z,101116.23
2018-06-04T06:44:29.564Z,101113.53
2018-06-04T06:47:05.110Z,101115.39
2018-06-04T06:49:40.858Z,101121.37
2018-06-04T06:52:16.769Z,101124.88
2018-06-04T06:54:52.410Z,101124.70
2018-06-04T06:57:28.104Z,101121.67
2018-06-04T07:00:04.770Z,101116.82
2018-06-04T07:02:41.286Z,101115.47
2018-06-04T07:05:17.987Z,101115.95
2018-06-04T07:07:54.334Z,101115.95
2018-06-04T07:10:32.124Z,101114.25
2018-06-04T07:13:09.892Z,101110.21
2018-06-04T07:15:48.938Z,101112.38
2018-06-04T07:18:27.294Z,101107.66
2018-06-04T07:21:04.526Z,101105.16
2018-06-04T07:23:41.323Z,101106.30
2018-06-04T07:26:16.409Z,101111.95
2018-06-04T07:28:53.725Z,101108.29
2018-06-04T07:31:30.322Z,101103.61
2018-06-04T07:34:05.436Z,101106.94
2018-06-04T07:36:43.237Z,101106.23
2018-06-04T07:39:21.341Z,101101.41
2018-06-04T07:41:58.348Z,101097.41
2018-06-04T07:44:36.061Z,101097.05
2018-06-04T07:47:13.340Z,101101.05
2018-06-04T07:49:51.122Z,101104.55
2018-06-04T07:52:28.929Z,101099.69
2018-06-04T07:55:04.083Z,101096.97
2018-06-04T07:57:42.346Z,101090.97
2018-06-04T08:00:20.565Z,101101.63
2018-06-04T08:02:57.832Z,101094.63
2018-06-04T08:05:35.844Z,101098.44
2018-06-04T08:08:13.296Z,101094.91
2018-06-04T08:10:50.265Z,101089.85
2018-06-04T08:13:27.342Z,101091.35
2018-06-04T08:16:04.550Z,101085.66
2018-06-04T08:18:41.086Z,101087.98
2018-06-04T08:21:20.049Z,101083.64
2018-06-04T08:23:56.878Z,101096.12
2018-06-04T08:26:33.426Z,101090.47
2018-06-04T08:29:09.989Z,101094.79
2018-06-04T08:31:47.051Z,101092.80
2018-06-04T08:34:24.103Z,101089.65
2018-06-04T08:37:00.714Z,101098.48
2018-06-04T08:39:37.894Z,101093.16
2018-06-04T08:42:15.053Z,101099.82
2018-06-04T08:44:52.281Z,101094.13
2018-06-04T08:47:29.226Z,101092.97
2018-06-04T08:50:06.065Z,101096.59
2018-06-04T08:52:43.530Z,101095.26
2018-06-04T08:55:20.085Z,101099.26
2018-06-04T08:57:57.089Z,101098.09
2018-06-04T09:00:34.090Z,101100.27
2018-06-04T09:03:10.503Z,101096.27
2018-06-04T09:05:47.844Z,101094.09
2018-06-04T09:08:24.886Z,101091.11
2018-06-04T09:11:01.117Z,101100.76
2018-06-04T09:13:38.992Z,101098.39
2018-06-04T09:16:15.354Z,101098.53
2018-06-04T09:18:52.273Z,101100.34
2018-06-04T09:21:29.811Z,101094.63
2018-06-04T09:24:08.679Z,101097.75
2018-06-04T09:26:45.770Z,101094.58
2018-06-04T09:29:22.494Z,101092.08
2018-06-04T09:31:59.305Z,101088.89
2018-06-04T09:34:34.456Z,101086.55
2018-06-04T09:37:11.474Z,101092.02
2018-06-04T09:39:48.267Z,101090.69
2018-06-04T09:42:24.739Z,101089.88
2018-06-04T09:45:02.070Z,101090.69
2018-06-04T09:47:39.521Z,101089.03
2018-06-04T09:50:17.074Z,101091.34
2018-06-04T09:52:53.653Z,101086.53
2018-06-04T09:55:30.474Z,101082.13
2018-06-04T09:58:07.443Z,101093.00
2018-06-04T10:00:44.320Z,101089.84
2018-06-04T10:03:21.092Z,101085.79
2018-06-04T10:05:58.318Z,101088.78
2018-06-04T10:08:34.613Z,101086.60
2018-06-04T10:11:11.516Z,101086.60
2018-06-04T10:13:48.293Z,101084.43
2018-06-04T10:16:26.282Z,101087.74
2018-06-04T10:19:03.316Z,101082.91
2018-06-04T10:21:40.461Z,101082.09
2018-06-04T10:24:17.282Z,101084.89
2018-06-04T10:26:54.099Z,101077.03
2018-06-04T10:29:30.437Z,101074.17
2018-06-04T10:32:07.865Z,101073.13
2018-06-04T10:34:44.326Z,101077.65
2018-06-04T10:37:19.661Z,101080.96
2018-06-04T10:39:56.277Z,101079.77
2018-06-04T10:42:31.006Z,101084.37
2018-06-04T10:45:08.095Z,101080.19
2018-06-04T10:47:45.292Z,101084.80
2018-06-04T10:50:22.482Z,101086.78
2018-06-04T10:52:59.391Z,101087.27
2018-06-04T10:55:36.104Z,101093.73
2018-06-04T10:58:13.091Z,101096.52
2018-06-04T11:00:50.493Z,101087.33
2018-06-04T11:03:31.784Z,101089.50
2018-06-04T11:06:08.755Z,101088.17
2018-06-04T11:08:45.145Z,101086.64
2018-06-04T11:11:23.064Z,101096.97
2018-06-04T11:14:00.490Z,101094.30
2018-06-04T11:16:37.532Z,101093.26
2018-06-04T11:19:14.086Z,101089.07
2018-06-04T11:21:51.768Z,101094.39
2018-06-04T11:24:29.091Z,101085.08
2018-06-04T11:27:05.518Z,101095.08
2018-06-04T11:29:42.845Z,101093.26
2018-06-04T11:32:20.742Z,101088.78
2018-06-04T11:34:58.275Z,101091.45
2018-06-04T11:37:35.822Z,101090.41
2018-06-04T11:40:12.286Z,101095.52
2018-06-04T11:42:49.521Z,101097.02
2018-06-04T11:45:26.763Z,101099.35
2018-06-04T11:48:03.978Z,101103.44
2018-06-04T11:50:41.097Z,101109.37
2018-06-04T11:53:17.274Z,101110.88
2018-06-04T11:55:54.109Z,101110.45
2018-06-04T11:58:32.095Z,101114.24
2018-06-04T12:01:09.278Z,101118.92
2018-06-04T12:03:44.460Z,101116.54
2018-06-04T12:06:21.082Z,101120.78
2018-06-04T12:08:57.933Z,101112.85
2018-06-04T12:11:34.503Z,101117.97
2018-06-04T12:14:12.244Z,101116.03
2018-06-04T12:16:49.088Z,101123.21
2018-06-04T12:19:25.299Z,101123.05
2018-06-04T12:22:02.310Z,101122.93
2018-06-04T12:24:39.389Z,101125.44
2018-06-04T12:27:15.003Z,101121.39
2018-06-04T12:29:52.469Z,101120.83
2018-06-04T12:32:29.110Z,101126.46
2018-06-04T12:35:06.271Z,101124.29
2018-06-04T12:37:41.421Z,101127.80
2018-06-04T12:40:18.269Z,101125.77
2018-06-04T12:42:56.073Z,101126.10
2018-06-04T12:45:32.534Z,101131.09
2018-06-04T12:48:09.592Z,101128.07
2018-06-04T12:50:47.094Z,101117.54
2018-06-04T12:53:24.823Z,101126.53
2018-06-04T12:56:02.091Z,101126.33
2018-06-04T12:58:38.844Z,101126.84
2018-06-04T13:01:15.801Z,101129.98
2018-06-04T13:03:53.103Z,101130.58
2018-06-04T13:06:30.508Z,101133.93
2018-06-04T13:09:07.850Z,101140.58
2018-06-04T13:11:44.574Z,101138.40
2018-06-04T13:14:21.578Z,101137.83
2018-06-04T13:16:58.354Z,101142.45
2018-06-04T13:19:33.685Z,101149.74
2018-06-04T13:22:11.074Z,101154.84
2018-06-04T13:24:48.208Z,101162.08
2018-06-04T13:27:25.257Z,101154.41
2018-06-04T13:30:02.094Z,101157.39
2018-06-04T13:32:38.777Z,101157.24
2018-06-04T13:35:15.775Z,101151.92
2018-06-04T13:37:52.471Z,101148.73
2018-06-04T13:40:27.838Z,101156.43
2018-06-04T13:43:05.087Z,101162.38
2018-06-04T13:45:46.831Z,101164.89
2018-06-04T13:48:24.285Z,101164.41
2018-06-04T13:51:01.843Z,101159.90
2018-06-04T13:53:39.285Z,101165.58
2018-06-04T13:56:17.792Z,101167.60
2018-06-04T13:58:54.270Z,101154.10
2018-06-04T14:01:31.437Z,101169.63
2018-06-04T14:04:08.072Z,101166.13
2018-06-04T14:06:46.107Z,101172.77
2018-06-04T14:09:23.080Z,101172.13
2018-06-04T14:11:59.877Z,101174.52
2018-06-04T14:14:36.278Z,101178.94
2018-06-04T14:17:13.293Z,101179.45
2018-06-04T14:19:50.072Z,101179.14
2018-06-04T14:22:27.088Z,101186.15
2018-06-04T14:25:05.398Z,101190.83
2018-06-04T14:27:40.207Z,101192.80
2018-06-04T14:30:17.085Z,101195.94
2018-06-04T14:32:54.649Z,101189.56
2018-06-04T14:35:31.088Z,101193.22
2018-06-04T14:38:08.089Z,101198.27
2018-06-04T14:40:45.009Z,101199.08
2018-06-04T14:43:21.756Z,101193.77
2018-06-04T14:45:58.456Z,101186.09
2018-06-04T14:48:34.982Z,101189.66
2018-06-04T14:51:11.794Z,101182.02
2018-06-04T14:53:48.535Z,101186.30
2018-06-04T14:56:25.075Z,101194.55
2018-06-04T14:59:03.092Z,101195.16
2018-06-04T15:01:40.083Z,101193.67
2018-06-04T15:04:16.808Z,101200.71
2018-06-04T15:06:54.070Z,101198.27
2018-06-04T15:09:31.081Z,101192.10
2018-06-04T15:12:07.775Z,101193.77
2018-06-04T15:14:45.069Z,101186.78
2018-06-04T15:17:21.938Z,101191.16
2018-06-04T15:19:59.107Z,101190.05
2018-06-04T15:22:35.800Z,101188.92
2018-06-04T15:25:13.088Z,101191.31
2018-06-04T15:27:50.075Z,101192.54
2018-06-04T15:30:26.297Z,101197.09
2018-06-04T15:33:03.798Z,101199.87
2018-06-04T15:35:40.093Z,101202.05
2018-06-04T15:38:16.486Z,101200.56
2018-06-04T15:40:54.112Z,101201.25
2018-06-04T15:43:31.072Z,101200.49
2018-06-04T15:48:54.406Z,101201.19
2018-06-04T15:51:32.092Z,101204.66
2018-06-04T15:54:11.215Z,101199.55
2018-06-04T15:56:48.326Z,101196.77
2018-06-04T15:59:26.104Z,101197.94
2018-06-04T16:02:03.438Z,101203.47
2018-06-04T16:04:40.480Z,101200.92
2018-06-04T16:07:17.090Z,101205.48
2018-06-04T16:09:54.094Z,101201.55
2018-06-04T16:12:31.079Z,101205.53
2018-06-04T16:15:09.082Z,101199.94
2018-06-04T16:17:46.087Z,101199.78
2018-06-04T16:20:23.658Z,101201.80
2018-06-04T16:22:58.729Z,101208.98
2018-06-04T16:25:35.267Z,101212.65
2018-06-04T16:28:10.812Z,101214.52
2018-06-04T16:30:46.303Z,101213.09
2018-06-04T16:33:21.936Z,101205.36
2018-06-04T16:35:57.669Z,101205.20
2018-06-04T16:38:35.436Z,101206.20
2018-06-04T16:41:11.872Z,101204.02
2018-06-04T16:43:49.098Z,101209.42
2018-06-04T16:46:25.850Z,101205.80
2018-06-04T16:49:01.445Z,101214.27
2018-06-04T16:51:36.661Z,101206.77
2018-06-04T16:54:13.840Z,101209.15
2018-06-04T16:56:49.535Z,101204.72
2018-06-04T16:59:27.403Z,101208.91
2018-06-04T17:02:04.999Z,101203.27
2018-06-04T17:04:40.744Z,101207.31
2018-06-04T17:07:16.211Z,101203.88
2018-06-04T17:09:53.465Z,101207.88
2018-06-04T17:12:29.069Z,101201.75
2018-06-04T17:15:04.594Z,101204.98
2018-06-04T17:17:40.099Z,101207.48
2018-06-04T17:20:15.666Z,101204.02
2018-06-04T17:22:51.328Z,101210.03
2018-06-04T17:25:27.122Z,101203.28
2018-06-04T17:28:02.750Z,101199.62
2018-06-04T17:30:38.334Z,101199.86
2018-06-04T17:33:12.007Z,101206.23
2018-06-04T17:36:40.849Z,101209.58
2018-06-04T17:39:16.517Z,101217.12
2018-06-04T17:41:52.066Z,101219.50
2018-06-04T17:44:27.769Z,101216.74
2018-06-04T17:47:04.852Z,101210.64
2018-06-04T17:49:41.137Z,101215.64
2018-06-04T17:52:17.262Z,101217.73
2018-06-04T17:56:42.425Z,101217.11
2018-06-04T17:59:18.096Z,101207.83
2018-06-04T18:01:53.909Z,101214.19
2018-06-04T18:04:29.474Z,101207.56
2018-06-04T18:07:05.505Z,101206.95
2018-06-04T18:09:41.097Z,101202.98
2018-06-04T18:12:17.819Z,101204.34
2018-06-04T18:14:53.444Z,101212.23
2018-06-04T18:17:29.097Z,101209.77
2018-06-04T18:20:04.936Z,101212.10
2018-06-04T18:22:40.902Z,101212.00
2018-06-04T18:25:16.756Z,101211.17
2018-06-04T18:27:52.427Z,101211.76
2018-06-04T18:30:26.006Z,101216.63
2018-06-04T18:33:02.497Z,101211.62
2018-06-04T18:35:38.098Z,101211.31
2018-06-04T18:38:14.967Z,101211.17
2018-06-04T18:40:51.131Z,101211.06
2018-06-04T18:43:27.116Z,101212.06
2018-06-04T18:46:03.286Z,101209.45
2018-06-04T18:48:39.287Z,101205.47
2018-06-04T18:51:15.451Z,101210.83
2018-06-04T18:53:51.333Z,101208.02
2018-06-04T18:56:27.880Z,101205.23
2018-06-04T18:59:03.902Z,101206.41
2018-06-04T19:01:40.092Z,101202.95
2018-06-04T19:04:16.214Z,101206.61
2018-06-04T19:06:52.218Z,101207.86
2018-06-04T19:09:28.209Z,101209.03
2018-06-04T19:12:04.289Z,101208.56
2018-06-04T19:14:40.553Z,101206.93
2018-06-04T19:17:17.211Z,101202.80
2018-06-04T19:19:54.267Z,101200.45
2018-06-04T19:22:30.430Z,101187.97
2018-06-04T19:25:06.433Z,101189.96
2018-06-04T19:27:44.274Z,101184.45
2018-06-04T19:30:20.082Z,101192.95
2018-06-04T19:32:56.291Z,101195.14
2018-06-04T19:35:32.296Z,101194.30
2018-06-04T19:38:06.231Z,101190.95
2018-06-04T19:40:42.706Z,101186.30
2018-06-04T19:43:19.210Z,101185.95
2018-06-04T19:45:55.329Z,101188.97
2018-06-04T19:48:31.264Z,101191.32
2018-06-04T19:51:07.384Z,101184.13
2018-06-04T19:53:43.343Z,101185.47
2018-06-04T19:56:19.563Z,101187.47
2018-06-04T19:58:56.665Z,101182.31
2018-06-04T20:01:32.644Z,101181.48
2018-06-04T20:04:08.792Z,101185.98
2018-06-04T20:06:45.100Z,101180.97
2018-06-04T20:09:21.293Z,101184.98
2018-06-04T20:11:57.846Z,101186.80
2018-06-04T20:14:33.857Z,101190.30
2018-06-04T20:17:10.131Z,101193.78
2018-06-04T20:19:46.207Z,101187.11
2018-06-04T20:22:22.093Z,101187.77
2018-06-04T20:24:58.099Z,101183.91
2018-06-04T20:27:34.118Z,101178.03
2018-06-04T20:30:11.430Z,101178.69
2018-06-04T20:32:47.447Z,101181.20
2018-06-04T20:35:24.976Z,101179.18
2018-06-04T20:38:00.854Z,101182.63
2018-06-04T20:40:36.429Z,101184.79
2018-06-04T20:43:12.456Z,101180.56
2018-06-04T20:45:48.087Z,101169.48
2018-06-04T20:48:23.905Z,101152.57
2018-06-04T20:51:00.481Z,101157.72
2018-06-04T20:53:36.437Z,101159.22
2018-06-04T20:56:12.091Z,101153.48
2018-06-04T20:58:47.951Z,101151.80
2018-06-04T21:01:23.802Z,101152.95
2018-06-04T21:04:00.294Z,101151.77
2018-06-04T21:06:36.331Z,101151.89
2018-06-04T21:09:13.421Z,101152.16
2018-06-04T21:11:49.962Z,101150.94
2018-06-04T21:14:26.104Z,101145.38
2018-06-04T21:17:03.315Z,101143.81
2018-06-04T21:19:39.434Z,101142.77
2018-06-04T21:22:16.106Z,101147.94
2018-06-04T21:24:53.291Z,101151.47
2018-06-04T21:27:30.091Z,101156.33
2018-06-04T21:30:10.261Z,101141.87
2018-06-04T21:32:49.299Z,101148.73
2018-06-04T21:35:28.834Z,101143.28
2018-06-04T21:38:06.674Z,101146.70
2018-06-04T21:40:44.517Z,101149.30
2018-06-04T21:43:26.265Z,101154.36
2018-06-04T21:46:01.575Z,101154.61
2018-06-04T21:48:38.317Z,101143.14
2018-06-04T21:51:14.069Z,101140.91
2018-06-04T21:53:50.090Z,101148.75
2018-06-04T21:56:25.836Z,101143.00
2018-06-04T21:59:01.406Z,101134.89
2018-06-04T22:01:37.066Z,101139.45
2018-06-04T22:04:15.891Z,101133.34
2018-06-04T22:06:51.412Z,101131.48
2018-06-04T22:09:27.534Z,101131.78
2018-06-04T22:12:04.178Z,101136.44
2018-06-04T22:14:40.211Z,101128.83
2018-06-04T22:17:17.081Z,101134.16
2018-06-04T22:19:53.092Z,101122.91
2018-06-04T22:22:30.087Z,101123.46
2018-06-04T22:25:06.209Z,101126.94
2018-06-04T22:27:42.108Z,101123.94
2018-06-04T22:30:18.233Z,101120.66
2018-06-04T22:32:54.272Z,101115.97
2018-06-04T22:35:30.423Z,101116.13
2018-06-04T22:38:11.449Z,101114.44
2018-06-04T22:40:47.553Z,101118.13
2018-06-04T22:43:23.112Z,101118.52
2018-06-04T22:45:59.210Z,101112.66
2018-06-04T22:48:35.303Z,101107.77
2018-06-04T22:51:11.662Z,101099.58
2018-06-04T22:53:47.954Z,101101.22
2018-06-04T22:56:24.772Z,101098.63
2018-06-04T22:59:00.826Z,101099.46
2018-06-04T23:01:36.841Z,101103.89
2018-06-04T23:04:12.882Z,101100.66
2018-06-04T23:06:49.205Z,101097.84
2018-06-04T23:09:25.209Z,101098.37
2018-06-04T23:12:01.281Z,101100.41
2018-06-04T23:14:37.210Z,101101.06
2018-06-04T23:17:15.112Z,101106.98
2018-06-04T23:19:51.406Z,101109.34
2018-06-04T23:22:28.725Z,101105.30
2018-06-04T23:25:05.210Z,101111.16
2018-06-04T23:27:41.282Z,101109.28
2018-06-04T23:30:17.826Z,101106.29
2018-06-04T23:32:53.786Z,101111.37
2018-06-04T23:35:30.281Z,101105.16
2018-06-04T23:38:06.331Z,101096.80
2018-06-04T23:40:44.423Z,101101.33
2018-06-04T23:43:20.276Z,101102.34
2018-06-04T23:45:56.210Z,101104.91
2018-06-04T23:48:32.086Z,101094.03
2018-06-04T23:51:08.266Z,101100.80
2018-06-04T23:53:44.319Z,101096.09
2018-06-04T23:56:20.514Z,101102.80
2018-06-04T23:58:56.861Z,101098.94
